Terminal Aerodrome Forecast
Issued by NWS

Home | Current Version | Previous Version | Text Only | Print | Product List | Glossary Off
Versions: 1 2 3 4 5 6 7 8 9 10 11 12 13 14 15 16 17 18

466
FTUS43 KMPX 252137 AAB
TAFAXN
TAF AMD
KAXN 252137Z 2522/2618 15012KT P6SM VCSH BKN050 OVC100
     FM260400 18006KT P6SM BKN060
     FM260800 20006KT P6SM BKN100
     FM261400 24012G19KT P6SM SCT120=

USA.gov is the U.S. government's official web portal to all federal, state and local government web resources and services.